createdAt,value
2022-11-06T00:01:34.517Z,5.80
2022-11-06T00:04:01.831Z,5.70
2022-11-06T00:06:47.291Z,5.70
2022-11-06T00:09:16.359Z,5.70
2022-11-06T00:11:44.016Z,5.70
2022-11-06T00:14:11.745Z,5.70
2022-11-06T00:16:40.208Z,5.70
2022-11-06T00:19:08.390Z,5.70
2022-11-06T00:21:36.237Z,5.70
2022-11-06T00:24:05.679Z,5.60
2022-11-06T00:26:34.556Z,5.60
2022-11-06T00:29:02.650Z,5.60
2022-11-06T00:31:32.823Z,5.60
2022-11-06T00:34:01.306Z,5.50
2022-11-06T00:36:30.800Z,5.50
2022-11-06T00:38:59.275Z,5.50
2022-11-06T00:41:27.318Z,5.50
2022-11-06T00:43:58.977Z,5.50
2022-11-06T00:46:27.093Z,5.50
2022-11-06T00:48:55.745Z,5.50
2022-11-06T00:51:30.258Z,5.50
2022-11-06T00:53:59.994Z,5.50
2022-11-06T00:56:28.308Z,5.50
2022-11-06T00:58:56.434Z,5.40
2022-11-06T01:01:32.069Z,5.40
2022-11-06T01:04:02.441Z,5.40
2022-11-06T01:06:32.773Z,5.40
2022-11-06T01:09:00.427Z,5.40
2022-11-06T01:11:59.553Z,5.40
2022-11-06T01:14:24.817Z,5.40
2022-11-06T01:16:52.380Z,5.30
2022-11-06T01:19:21.084Z,5.30
2022-11-06T01:21:53.025Z,5.30
2022-11-06T01:24:26.403Z,5.30
2022-11-06T01:27:24.333Z,5.30
2022-11-06T01:29:41.810Z,5.30
2022-11-06T01:32:09.081Z,5.30
2022-11-06T01:34:36.417Z,5.30
2022-11-06T01:37:04.578Z,5.30
2022-11-06T01:39:31.852Z,5.30
2022-11-06T01:41:59.512Z,5.20
2022-11-06T01:44:36.057Z,5.20
2022-11-06T01:47:05.913Z,5.20
2022-11-06T01:49:38.714Z,5.20
2022-11-06T01:52:10.291Z,5.20
2022-11-06T01:54:40.356Z,5.30
2022-11-06T01:57:09.527Z,5.20
2022-11-06T01:59:40.247Z,5.20
2022-11-06T02:02:07.826Z,5.20
2022-11-06T02:04:41.617Z,5.20
2022-11-06T02:07:09.571Z,5.20
2022-11-06T02:09:37.171Z,5.10
2022-11-06T02:12:28.494Z,5.10
2022-11-06T02:15:21.682Z,5.10
2022-11-06T02:17:51.978Z,5.20
2022-11-06T02:20:37.978Z,5.20
2022-11-06T02:23:23.160Z,5.20
2022-11-06T02:26:10.767Z,5.20
2022-11-06T02:28:44.282Z,5.20
2022-11-06T02:31:15.979Z,5.20
2022-11-06T02:34:05.898Z,5.10
2022-11-06T02:36:47.886Z,5.10
2022-11-06T02:39:19.385Z,5.10
2022-11-06T02:41:48.133Z,5.10
2022-11-06T02:44:20.881Z,5.10
2022-11-06T02:46:53.459Z,5.10
2022-11-06T02:49:30.552Z,5.10
2022-11-06T02:52:04.605Z,5.20
2022-11-06T02:54:35.731Z,5.10
2022-11-06T02:57:08.950Z,5.20
2022-11-06T02:59:59.380Z,5.10
2022-11-06T03:02:34.088Z,5.20
2022-11-06T03:05:16.010Z,5.20
2022-11-06T03:07:52.925Z,5.20
2022-11-06T03:10:20.706Z,5.20
2022-11-06T03:13:00.944Z,5.20
2022-11-06T03:15:43.239Z,5.20
2022-11-06T03:18:20.235Z,5.10
2022-11-06T03:21:01.856Z,5.20
2022-11-06T03:23:48.353Z,5.20
2022-11-06T03:26:23.901Z,5.20
2022-11-06T03:28:58.381Z,5.20
2022-11-06T03:31:36.895Z,5.20
2022-11-06T03:34:11.137Z,5.20
2022-11-06T03:36:43.718Z,5.20
2022-11-06T03:39:15.839Z,5.20
2022-11-06T03:41:54.652Z,5.20
2022-11-06T03:44:28.327Z,5.20
2022-11-06T03:47:04.028Z,5.20
2022-11-06T03:49:39.501Z,5.20
2022-11-06T03:52:13.541Z,5.10
2022-11-06T03:54:47.228Z,5.10
2022-11-06T03:57:24.685Z,5.10
2022-11-06T03:59:58.081Z,5.10
2022-11-06T04:02:28.686Z,5.10
2022-11-06T04:05:09.309Z,5.20
2022-11-06T04:07:41.436Z,5.20
2022-11-06T04:10:30.044Z,5.20
2022-11-06T04:13:18.503Z,5.20
2022-11-06T04:15:53.102Z,5.20
2022-11-06T04:18:20.894Z,5.30
2022-11-06T04:21:25.365Z,5.30
2022-11-06T04:24:29.984Z,5.30
2022-11-06T04:27:02.715Z,5.20
2022-11-06T04:29:42.250Z,5.20
2022-11-06T04:32:15.069Z,5.20
2022-11-06T04:34:48.164Z,5.10
2022-11-06T04:37:25.754Z,5.20
2022-11-06T04:40:23.919Z,5.20
2022-11-06T04:42:54.063Z,5.20
2022-11-06T04:45:28.072Z,5.20
2022-11-06T04:47:55.798Z,5.20
2022-11-06T04:50:24.986Z,5.20
2022-11-06T04:52:53.083Z,5.20
2022-11-06T04:55:22.586Z,5.30
2022-11-06T04:57:49.859Z,5.20
2022-11-06T05:00:17.696Z,5.20
2022-11-06T05:02:44.882Z,5.10
2022-11-06T05:05:12.292Z,5.10
2022-11-06T05:07:39.592Z,5.10
2022-11-06T05:10:06.973Z,5.10
2022-11-06T05:12:34.141Z,5.10
2022-11-06T05:15:01.442Z,5.10
2022-11-06T05:17:31.545Z,5.10
2022-11-06T05:20:02.587Z,5.10
2022-11-06T05:22:48.489Z,5.10
2022-11-06T05:25:15.760Z,5.10
2022-11-06T05:27:42.901Z,5.10
2022-11-06T05:30:10.687Z,5.10
2022-11-06T05:32:37.887Z,5.10
2022-11-06T05:35:05.405Z,5.10
2022-11-06T05:37:33.022Z,5.10
2022-11-06T05:40:00.193Z,5.10
2022-11-06T05:42:27.415Z,5.10
2022-11-06T05:44:54.748Z,5.10
2022-11-06T05:47:21.957Z,5.10
2022-11-06T05:49:49.151Z,5.10
2022-11-06T05:52:16.421Z,5.10
2022-11-06T05:54:43.635Z,5.10
2022-11-06T05:57:10.816Z,5.00
2022-11-06T05:59:38.103Z,5.10
2022-11-06T06:02:05.653Z,5.00
2022-11-06T06:04:32.971Z,5.10
2022-11-06T06:07:00.870Z,5.10
2022-11-06T06:09:28.193Z,5.00
2022-11-06T06:11:55.485Z,5.10
2022-11-06T06:14:22.829Z,5.10
2022-11-06T06:16:50.052Z,5.00
2022-11-06T06:19:17.514Z,5.00
2022-11-06T06:21:44.766Z,5.10
2022-11-06T06:24:12.007Z,5.00
2022-11-06T06:26:39.330Z,5.10
2022-11-06T06:29:06.662Z,5.10
2022-11-06T06:31:33.849Z,5.10
2022-11-06T06:34:01.077Z,5.10
2022-11-06T06:36:28.354Z,5.20
2022-11-06T06:38:55.954Z,5.20
2022-11-06T06:41:23.018Z,5.20
2022-11-06T06:43:50.719Z,5.20
2022-11-06T06:46:18.346Z,5.20
2022-11-06T06:48:45.658Z,5.20
2022-11-06T06:51:12.871Z,5.20
2022-11-06T06:53:40.080Z,5.30
2022-11-06T06:56:07.407Z,5.30
2022-11-06T06:58:34.718Z,5.30
2022-11-06T07:01:03.689Z,5.40
2022-11-06T07:03:31.956Z,5.40
2022-11-06T07:05:59.857Z,5.50
2022-11-06T07:08:28.229Z,5.50
2022-11-06T07:11:07.896Z,5.60
2022-11-06T07:13:36.614Z,5.70
2022-11-06T07:16:11.051Z,5.70
2022-11-06T07:18:38.615Z,5.80
2022-11-06T07:21:10.919Z,5.80
2022-11-06T07:23:39.238Z,5.90
2022-11-06T07:26:07.273Z,5.90
2022-11-06T07:28:34.553Z,6.00
2022-11-06T07:31:03.646Z,6.00
2022-11-06T07:33:31.286Z,6.10
2022-11-06T07:36:07.361Z,6.10
2022-11-06T07:38:35.547Z,6.20
2022-11-06T07:41:05.184Z,6.20
2022-11-06T07:43:32.945Z,6.30
2022-11-06T07:46:01.987Z,6.30
2022-11-06T07:48:33.471Z,6.40
2022-11-06T07:51:04.108Z,6.50
2022-11-06T07:53:31.570Z,6.50
2022-11-06T07:55:59.365Z,6.60
2022-11-06T07:58:26.845Z,6.60
2022-11-06T08:00:57.141Z,6.70
2022-11-06T08:03:25.861Z,6.70
2022-11-06T08:05:53.234Z,6.80
2022-11-06T08:08:21.462Z,6.80
2022-11-06T08:10:48.782Z,6.90
2022-11-06T08:13:18.217Z,7.00
2022-11-06T08:15:45.688Z,7.00
2022-11-06T08:18:13.497Z,7.10
2022-11-06T08:20:41.248Z,7.20
2022-11-06T08:23:10.733Z,7.30
2022-11-06T08:25:38.360Z,7.30
2022-11-06T08:28:05.650Z,7.30
2022-11-06T08:30:33.103Z,7.30
2022-11-06T08:33:06.332Z,7.30
2022-11-06T08:35:35.184Z,7.40
2022-11-06T08:38:03.200Z,7.50
2022-11-06T08:40:31.481Z,7.50
2022-11-06T08:43:07.749Z,7.60
2022-11-06T08:45:43.268Z,7.70
2022-11-06T08:48:11.119Z,7.70
2022-11-06T08:50:40.387Z,7.90
2022-11-06T08:53:08.355Z,7.90
2022-11-06T08:55:37.835Z,8.00
2022-11-06T08:58:06.213Z,8.00
2022-11-06T09:00:33.775Z,7.90
2022-11-06T09:03:02.996Z,8.10
2022-11-06T09:05:31.610Z,8.20
2022-11-06T09:07:59.714Z,8.20
2022-11-06T09:10:28.230Z,8.20
2022-11-06T09:12:58.027Z,8.30
2022-11-06T09:15:25.913Z,8.30
2022-11-06T09:17:53.722Z,8.30
2022-11-06T09:20:23.492Z,8.30
2022-11-06T09:22:51.746Z,8.30
2022-11-06T09:25:19.479Z,8.50
2022-11-06T09:27:52.006Z,8.60
2022-11-06T09:30:23.337Z,8.70
2022-11-06T09:32:56.252Z,8.80
2022-11-06T09:35:25.409Z,8.90
2022-11-06T09:37:53.264Z,8.80
2022-11-06T09:40:42.458Z,8.90
2022-11-06T09:43:31.790Z,9.00
2022-11-06T09:46:24.156Z,9.00
2022-11-06T09:49:00.770Z,9.10
2022-11-06T09:52:06.668Z,9.00
2022-11-06T09:54:56.081Z,8.90
2022-11-06T09:57:44.533Z,8.90
2022-11-06T10:00:15.132Z,8.90
2022-11-06T10:02:58.244Z,9.00
2022-11-06T10:05:37.250Z,9.10
2022-11-06T10:08:22.908Z,9.10
2022-11-06T10:10:50.122Z,9.30
2022-11-06T10:13:43.561Z,9.50
2022-11-06T10:16:10.920Z,9.50
2022-11-06T10:19:00.640Z,9.40
2022-11-06T10:22:09.686Z,9.40
2022-11-06T10:25:04.635Z,9.40
2022-11-06T10:27:41.387Z,9.40
2022-11-06T10:30:13.420Z,9.30
2022-11-06T10:32:58.343Z,9.50
2022-11-06T10:35:54.382Z,9.70
2022-11-06T10:38:33.851Z,9.50
2022-11-06T10:41:02.444Z,9.40
2022-11-06T10:43:29.881Z,9.40
2022-11-06T10:46:16.878Z,9.40
2022-11-06T10:48:52.456Z,9.40
2022-11-06T10:51:28.642Z,9.50
2022-11-06T10:54:19.191Z,9.60
2022-11-06T10:57:14.707Z,9.50
2022-11-06T10:59:42.457Z,9.50
2022-11-06T11:02:24.227Z,9.50
2022-11-06T11:04:56.736Z,9.50
2022-11-06T11:07:29.642Z,9.60
2022-11-06T11:09:56.789Z,9.60
2022-11-06T11:12:33.124Z,9.50
2022-11-06T11:15:21.583Z,9.60
2022-11-06T11:18:07.546Z,9.70
2022-11-06T11:20:37.006Z,9.80
2022-11-06T11:23:18.526Z,9.80
2022-11-06T11:25:48.869Z,9.80
2022-11-06T11:28:25.586Z,9.80
2022-11-06T11:30:55.578Z,9.80
2022-11-06T11:33:26.412Z,9.80
2022-11-06T11:35:55.398Z,9.80
2022-11-06T11:38:23.093Z,9.80
2022-11-06T11:40:51.754Z,9.80
2022-11-06T11:43:29.506Z,9.80
2022-11-06T11:46:10.973Z,9.80
2022-11-06T11:48:50.082Z,9.90
2022-11-06T11:51:30.942Z,10.00
2022-11-06T11:54:09.913Z,10.00
2022-11-06T11:57:05.673Z,10.00
2022-11-06T12:00:07.055Z,10.00
2022-11-06T12:02:44.058Z,10.10
2022-11-06T12:05:16.494Z,10.20
2022-11-06T12:07:56.201Z,10.20
2022-11-06T12:10:35.535Z,10.30
2022-11-06T12:13:19.260Z,10.50
2022-11-06T12:15:55.191Z,10.80
2022-11-06T12:18:27.439Z,11.00
2022-11-06T12:21:17.885Z,11.20
2022-11-06T12:24:13.087Z,11.40
2022-11-06T12:26:52.376Z,12.10
2022-11-06T12:29:23.730Z,12.20
2022-11-06T12:32:24.156Z,11.90
2022-11-06T12:35:15.869Z,11.80
2022-11-06T12:38:03.971Z,11.70
2022-11-06T12:40:43.516Z,11.50
2022-11-06T12:43:20.948Z,11.30
2022-11-06T12:45:53.529Z,11.20
2022-11-06T12:48:48.179Z,11.20
2022-11-06T12:51:23.935Z,11.40
2022-11-06T12:54:11.720Z,11.70
2022-11-06T12:57:15.942Z,11.60
2022-11-06T13:00:05.735Z,11.60
2022-11-06T13:02:53.576Z,11.50
2022-11-06T13:05:28.611Z,11.30
2022-11-06T13:08:29.076Z,11.20
2022-11-06T13:11:07.705Z,11.20
2022-11-06T13:13:59.084Z,11.20
2022-11-06T13:16:51.499Z,11.20
2022-11-06T13:19:20.802Z,11.50
2022-11-06T13:22:11.610Z,12.00
2022-11-06T13:24:48.273Z,12.00
2022-11-06T13:27:28.037Z,11.70
2022-11-06T13:30:03.168Z,11.50
2022-11-06T13:32:32.910Z,11.30
2022-11-06T13:35:00.708Z,11.10
2022-11-06T13:37:41.017Z,11.00
2022-11-06T13:40:38.139Z,10.90
2022-11-06T13:43:15.508Z,10.80
2022-11-06T13:46:11.842Z,10.90
2022-11-06T13:48:54.690Z,11.10
2022-11-06T13:51:47.257Z,11.20
2022-11-06T13:54:26.476Z,11.20
2022-11-06T13:57:16.683Z,11.20
2022-11-06T14:00:08.599Z,11.10
2022-11-06T14:02:35.807Z,10.90
2022-11-06T14:05:27.638Z,10.70
2022-11-06T14:07:56.372Z,10.60
2022-11-06T14:10:51.557Z,10.50
2022-11-06T14:13:26.536Z,10.30
2022-11-06T14:16:23.016Z,10.20
2022-11-06T14:19:12.797Z,10.20
2022-11-06T14:21:40.058Z,10.10
2022-11-06T14:24:15.944Z,10.00
2022-11-06T14:26:45.517Z,10.00
2022-11-06T14:29:27.979Z,10.00
2022-11-06T14:32:21.754Z,9.90
2022-11-06T14:34:49.043Z,9.90
2022-11-06T14:37:18.891Z,9.90
2022-11-06T14:39:52.239Z,9.80
2022-11-06T14:42:31.132Z,9.80
2022-11-06T14:45:20.722Z,9.70
2022-11-06T14:47:52.876Z,9.70
2022-11-06T14:50:20.028Z,9.70
2022-11-06T14:52:52.757Z,9.70
2022-11-06T14:55:42.474Z,9.60
2022-11-06T14:58:15.302Z,9.60
2022-11-06T15:01:01.553Z,9.50
2022-11-06T15:03:49.793Z,9.60
2022-11-06T15:06:16.920Z,9.50
2022-11-06T15:08:50.062Z,9.50
2022-11-06T15:11:32.691Z,9.40
2022-11-06T15:14:02.240Z,9.40
2022-11-06T15:17:10.574Z,9.40
2022-11-06T15:20:01.930Z,9.40
2022-11-06T15:22:48.701Z,9.30
2022-11-06T15:25:28.321Z,9.30
2022-11-06T15:28:07.804Z,9.20
2022-11-06T15:30:49.108Z,9.20
2022-11-06T15:33:42.227Z,9.20
2022-11-06T15:36:13.764Z,9.20
2022-11-06T15:38:42.603Z,9.10
2022-11-06T15:41:19.179Z,9.10
2022-11-06T15:43:49.266Z,9.10
2022-11-06T15:46:21.947Z,9.10
2022-11-06T15:49:06.682Z,9.10
2022-11-06T15:51:37.470Z,9.00
2022-11-06T15:54:04.859Z,8.90
2022-11-06T15:56:35.033Z,8.90
2022-11-06T15:59:17.339Z,8.90
2022-11-06T16:01:48.987Z,8.90
2022-11-06T16:04:21.148Z,8.80
2022-11-06T16:06:50.112Z,8.80
2022-11-06T16:09:27.083Z,8.70
2022-11-06T16:11:55.072Z,8.70
2022-11-06T16:14:23.008Z,8.70
2022-11-06T16:16:54.695Z,8.70
2022-11-06T16:19:24.632Z,8.60
2022-11-06T16:21:57.642Z,8.60
2022-11-06T16:27:11.765Z,8.60
2022-11-06T16:29:40.106Z,8.60
2022-11-06T16:32:18.186Z,8.50
2022-11-06T16:34:48.106Z,8.40
2022-11-06T16:37:18.375Z,8.30
2022-11-06T16:39:49.611Z,8.20
2022-11-06T16:42:28.038Z,8.10
2022-11-06T16:45:02.511Z,8.10
2022-11-06T16:47:29.963Z,8.00
2022-11-06T16:50:02.228Z,7.90
2022-11-06T16:52:41.737Z,7.80
2022-11-06T16:55:16.629Z,7.70
2022-11-06T16:57:59.807Z,7.70
2022-11-06T17:00:31.640Z,7.70
2022-11-06T17:03:08.890Z,7.70
2022-11-06T17:05:38.767Z,7.70
2022-11-06T17:08:18.476Z,7.60
2022-11-06T17:10:53.544Z,7.60
2022-11-06T17:13:23.287Z,7.60
2022-11-06T17:15:59.174Z,7.60
2022-11-06T17:18:30.645Z,7.60
2022-11-06T17:21:00.784Z,7.60
2022-11-06T17:23:29.769Z,7.50
2022-11-06T17:26:06.713Z,7.50
2022-11-06T17:28:34.170Z,7.50
2022-11-06T17:31:01.383Z,7.50
2022-11-06T17:33:28.784Z,7.50
2022-11-06T17:35:55.993Z,7.50
2022-11-06T17:38:23.249Z,7.50
2022-11-06T17:40:50.551Z,7.50
2022-11-06T17:43:18.015Z,7.50
2022-11-06T17:45:48.177Z,7.50
2022-11-06T17:48:15.738Z,7.50
2022-11-06T17:51:01.434Z,7.50
2022-11-06T17:53:28.673Z,7.50
2022-11-06T17:55:56.585Z,7.50
2022-11-06T17:58:23.802Z,7.50
2022-11-06T18:00:51.194Z,7.50
2022-11-06T18:03:22.978Z,7.50
2022-11-06T18:05:50.366Z,7.50
2022-11-06T18:08:18.620Z,7.50
2022-11-06T18:10:50.694Z,7.50
2022-11-06T18:13:17.934Z,7.50
2022-11-06T18:15:45.170Z,7.50
2022-11-06T18:18:15.843Z,7.50
2022-11-06T18:20:48.454Z,7.50
2022-11-06T18:23:16.268Z,7.50
2022-11-06T18:25:44.427Z,7.50
2022-11-06T18:28:11.736Z,7.50
2022-11-06T18:30:39.112Z,7.50
2022-11-06T18:33:06.433Z,7.50
2022-11-06T18:35:33.655Z,7.50
2022-11-06T18:38:01.705Z,7.50
2022-11-06T18:40:28.995Z,7.50
2022-11-06T18:42:56.198Z,7.50
2022-11-06T18:45:23.430Z,7.60
2022-11-06T18:47:50.671Z,7.60
2022-11-06T18:50:18.106Z,7.60
2022-11-06T18:52:57.502Z,7.60
2022-11-06T18:55:25.522Z,7.60
2022-11-06T18:57:53.280Z,7.60
2022-11-06T19:00:20.860Z,7.60
2022-11-06T19:02:48.132Z,7.70
2022-11-06T19:05:15.696Z,7.70
2022-11-06T19:07:47.779Z,7.70
2022-11-06T19:10:17.828Z,7.70
2022-11-06T19:12:45.034Z,7.70
2022-11-06T19:15:12.350Z,7.60
2022-11-06T19:17:42.238Z,7.70
2022-11-06T19:20:13.783Z,7.70
2022-11-06T19:22:42.427Z,7.70
2022-11-06T19:25:10.149Z,7.70
2022-11-06T19:27:38.163Z,7.70
2022-11-06T19:30:06.012Z,7.60
2022-11-06T19:32:33.223Z,7.70
2022-11-06T19:35:09.498Z,7.70
2022-11-06T19:37:38.676Z,7.80
2022-11-06T19:40:10.692Z,7.80
2022-11-06T19:42:38.111Z,7.80
2022-11-06T19:45:06.141Z,7.90
2022-11-06T19:47:33.476Z,8.00
2022-11-06T19:50:08.873Z,8.00
2022-11-06T19:52:43.174Z,8.10
2022-11-06T19:55:26.944Z,8.10
2022-11-06T19:57:57.708Z,8.10
2022-11-06T20:00:25.148Z,8.20
2022-11-06T20:02:52.697Z,8.20
2022-11-06T20:05:25.180Z,8.20
2022-11-06T20:07:54.489Z,8.20
2022-11-06T20:10:22.231Z,8.20
2022-11-06T20:12:49.372Z,8.20
2022-11-06T20:15:23.659Z,8.30
2022-11-06T20:17:53.569Z,8.30
2022-11-06T20:20:20.940Z,8.30
2022-11-06T20:22:48.965Z,8.30
2022-11-06T20:25:16.147Z,8.30
2022-11-06T20:27:44.595Z,8.30
2022-11-06T20:30:12.487Z,8.30
2022-11-06T20:32:39.749Z,8.30
2022-11-06T20:35:07.801Z,8.40
2022-11-06T20:37:35.276Z,8.40
2022-11-06T20:40:02.557Z,8.40
2022-11-06T20:42:29.749Z,8.40
2022-11-06T20:44:57.078Z,8.50
2022-11-06T20:47:24.447Z,8.50
2022-11-06T20:49:53.547Z,8.40
2022-11-06T20:52:20.653Z,8.50
2022-11-06T20:54:47.941Z,8.40
2022-11-06T20:57:17.786Z,8.40
2022-11-06T20:59:46.014Z,8.40
2022-11-06T21:02:13.955Z,8.50
2022-11-06T21:04:41.345Z,8.50
2022-11-06T21:07:08.511Z,8.40
2022-11-06T21:09:35.869Z,8.50
2022-11-06T21:12:03.158Z,8.50
2022-11-06T21:14:30.584Z,8.50
2022-11-06T21:16:57.828Z,8.50
2022-11-06T21:19:25.368Z,8.50
2022-11-06T21:21:56.821Z,8.50
2022-11-06T21:24:24.925Z,8.50
2022-11-06T21:26:55.286Z,8.50
2022-11-06T21:29:24.236Z,8.50
2022-11-06T21:31:52.069Z,8.50
2022-11-06T21:34:19.853Z,8.50
2022-11-06T21:36:47.969Z,8.50
2022-11-06T21:39:18.094Z,8.50
2022-11-06T21:41:45.848Z,8.50
2022-11-06T21:44:15.874Z,8.50
2022-11-06T21:46:45.674Z,8.60
2022-11-06T21:49:14.034Z,8.60
2022-11-06T21:51:41.850Z,8.60
2022-11-06T21:54:32.215Z,8.60
2022-11-06T21:56:59.488Z,8.60
2022-11-06T21:59:28.187Z,8.60
2022-11-06T22:01:56.187Z,8.60
2022-11-06T22:04:23.698Z,8.60
2022-11-06T22:06:52.703Z,8.60
2022-11-06T22:09:25.552Z,8.60
2022-11-06T22:11:53.170Z,8.60
2022-11-06T22:14:20.532Z,8.60
2022-11-06T22:16:48.221Z,8.70
2022-11-06T22:19:16.510Z,8.70
2022-11-06T22:21:43.825Z,8.70
2022-11-06T22:24:15.140Z,8.70
2022-11-06T22:26:42.457Z,8.60
2022-11-06T22:29:12.429Z,8.60
2022-11-06T22:31:39.773Z,8.60
2022-11-06T22:34:06.760Z,8.60
2022-11-06T22:36:36.546Z,8.70
2022-11-06T22:39:09.148Z,8.70
2022-11-06T22:41:36.537Z,8.70
2022-11-06T22:44:05.010Z,8.80
2022-11-06T22:46:32.447Z,8.80
2022-11-06T22:48:59.843Z,8.80
2022-11-06T22:51:30.295Z,8.80
2022-11-06T22:53:58.077Z,8.80
2022-11-06T22:56:26.985Z,8.80
2022-11-06T22:59:02.736Z,8.70
2022-11-06T23:01:34.817Z,8.70
2022-11-06T23:04:06.714Z,8.60
2022-11-06T23:06:34.373Z,8.60
2022-11-06T23:09:01.631Z,8.50
2022-11-06T23:11:30.058Z,8.50
2022-11-06T23:13:58.336Z,8.40
2022-11-06T23:16:46.028Z,8.40
2022-11-06T23:19:15.822Z,8.30
2022-11-06T23:21:43.979Z,8.30
2022-11-06T23:24:11.633Z,8.30
2022-11-06T23:26:38.981Z,8.30
2022-11-06T23:29:06.354Z,8.40
2022-11-06T23:31:33.592Z,8.40
2022-11-06T23:34:00.869Z,8.40
2022-11-06T23:36:28.082Z,8.50
2022-11-06T23:38:55.394Z,8.50
2022-11-06T23:41:41.060Z,8.50
2022-11-06T23:44:28.137Z,8.50
2022-11-06T23:46:55.385Z,8.60
2022-11-06T23:49:23.003Z,8.60
2022-11-06T23:51:50.708Z,8.60
2022-11-06T23:54:18.187Z,8.60
2022-11-06T23:56:45.457Z,8.70
2022-11-06T23:59:13.344Z,8.70
